sensor_id;sensor_type;location;lat;lon;timestamp;P1;durP1;ratioP1;P2;durP2;ratioP2
16600;SDS011;34891;48.164;11.572;2023-03-01T00:00:21;20.03;;;7.50;;
16600;SDS011;34891;48.164;11.572;2023-03-01T00:05:36;23.80;;;7.43;;
16600;SDS011;34891;48.164;11.572;2023-03-01T00:10:46;17.97;;;6.60;;
16600;SDS011;34891;48.164;11.572;2023-03-01T00:16:02;16.92;;;6.38;;
16600;SDS011;34891;48.164;11.572;2023-03-01T00:21:09;12.50;;;4.97;;
16600;SDS011;34891;48.164;11.572;2023-03-01T00:26:13;12.10;;;4.13;;
16600;SDS011;34891;48.164;11.572;2023-03-01T00:31:31;17.63;;;6.53;;
16600;SDS011;34891;48.164;11.572;2023-03-01T00:36:36;11.27;;;3.83;;
16600;SDS011;34891;48.164;11.572;2023-03-01T00:41:42;14.27;;;6.43;;
16600;SDS011;34891;48.164;11.572;2023-03-01T00:47:01;10.05;;;3.58;;
16600;SDS011;34891;48.164;11.572;2023-03-01T00:52:11;16.90;;;5.10;;
16600;SDS011;34891;48.164;11.572;2023-03-01T00:57:20;12.00;;;4.03;;
16600;SDS011;34891;48.164;11.572;2023-03-01T01:02:29;16.57;;;6.00;;
16600;SDS011;34891;48.164;11.572;2023-03-01T01:07:35;12.80;;;4.63;;
16600;SDS011;34891;48.164;11.572;2023-03-01T01:12:39;10.85;;;4.50;;
16600;SDS011;34891;48.164;11.572;2023-03-01T01:17:47;12.70;;;6.20;;
16600;SDS011;34891;48.164;11.572;2023-03-01T01:22:51;11.47;;;4.43;;
16600;SDS011;34891;48.164;11.572;2023-03-01T01:27:56;15.00;;;6.40;;
16600;SDS011;34891;48.164;11.572;2023-03-01T01:33:04;12.43;;;4.17;;
16600;SDS011;34891;48.164;11.572;2023-03-01T01:38:09;15.93;;;5.93;;
16600;SDS011;34891;48.164;11.572;2023-03-01T01:43:25;12.15;;;4.80;;
16600;SDS011;34891;48.164;11.572;2023-03-01T01:48:41;14.70;;;6.20;;
16600;SDS011;34891;48.164;11.572;2023-03-01T01:53:50;9.87;;;4.37;;
16600;SDS011;34891;48.164;11.572;2023-03-01T01:58:58;13.80;;;6.13;;
16600;SDS011;34891;48.164;11.572;2023-03-01T02:04:04;9.67;;;4.93;;
16600;SDS011;34891;48.164;11.572;2023-03-01T02:09:14;17.40;;;7.13;;
16600;SDS011;34891;48.164;11.572;2023-03-01T02:14:22;11.43;;;4.30;;
16600;SDS011;34891;48.164;11.572;2023-03-01T02:19:34;20.93;;;7.53;;
16600;SDS011;34891;48.164;11.572;2023-03-01T02:24:45;12.00;;;5.07;;
16600;SDS011;34891;48.164;11.572;2023-03-01T02:30:04;14.23;;;6.23;;
16600;SDS011;34891;48.164;11.572;2023-03-01T02:35:12;13.03;;;5.23;;
16600;SDS011;34891;48.164;11.572;2023-03-01T02:40:31;8.80;;;3.07;;
16600;SDS011;34891;48.164;11.572;2023-03-01T02:45:47;7.03;;;3.27;;
16600;SDS011;34891;48.164;11.572;2023-03-01T02:51:03;20.50;;;8.53;;
16600;SDS011;34891;48.164;11.572;2023-03-01T02:56:15;17.13;;;5.87;;
16600;SDS011;34891;48.164;11.572;2023-03-01T03:01:25;19.70;;;7.30;;
16600;SDS011;34891;48.164;11.572;2023-03-01T03:06:39;8.33;;;4.07;;
16600;SDS011;34891;48.164;11.572;2023-03-01T03:11:49;16.60;;;6.43;;
16600;SDS011;34891;48.164;11.572;2023-03-01T03:16:58;10.77;;;5.07;;
16600;SDS011;34891;48.164;11.572;2023-03-01T03:22:05;5.40;;;2.57;;
16600;SDS011;34891;48.164;11.572;2023-03-01T03:27:12;6.43;;;2.50;;
16600;SDS011;34891;48.164;11.572;2023-03-01T03:32:21;16.90;;;6.50;;
16600;SDS011;34891;48.164;11.572;2023-03-01T03:37:26;22.73;;;7.60;;
16600;SDS011;34891;48.164;11.572;2023-03-01T03:42:46;8.20;;;3.93;;
16600;SDS011;34891;48.164;11.572;2023-03-01T03:47:55;13.27;;;5.33;;
16600;SDS011;34891;48.164;11.572;2023-03-01T03:53:04;7.17;;;4.00;;
16600;SDS011;34891;48.164;11.572;2023-03-01T03:58:09;11.33;;;4.13;;
16600;SDS011;34891;48.164;11.572;2023-03-01T04:03:31;10.67;;;4.63;;
16600;SDS011;34891;48.164;11.572;2023-03-01T04:08:40;9.80;;;4.60;;
16600;SDS011;34891;48.164;11.572;2023-03-01T04:13:55;14.03;;;6.03;;
16600;SDS011;34891;48.164;11.572;2023-03-01T04:24:23;12.50;;;5.63;;
16600;SDS011;34891;48.164;11.572;2023-03-01T04:29:27;11.63;;;4.83;;
16600;SDS011;34891;48.164;11.572;2023-03-01T04:34:33;14.60;;;5.57;;
16600;SDS011;34891;48.164;11.572;2023-03-01T04:39:50;12.77;;;6.23;;
16600;SDS011;34891;48.164;11.572;2023-03-01T04:44:58;17.67;;;7.50;;
16600;SDS011;34891;48.164;11.572;2023-03-01T04:50:03;15.37;;;5.97;;
16600;SDS011;34891;48.164;11.572;2023-03-01T04:55:16;11.13;;;5.10;;
16600;SDS011;34891;48.164;11.572;2023-03-01T05:00:31;11.03;;;4.20;;
16600;SDS011;34891;48.164;11.572;2023-03-01T05:05:36;14.43;;;6.07;;
16600;SDS011;34891;48.164;11.572;2023-03-01T05:10:48;9.43;;;4.10;;
16600;SDS011;34891;48.164;11.572;2023-03-01T05:15:56;14.63;;;5.37;;
16600;SDS011;34891;48.164;11.572;2023-03-01T05:21:01;17.67;;;6.10;;
16600;SDS011;34891;48.164;11.572;2023-03-01T05:31:32;21.63;;;8.10;;
16600;SDS011;34891;48.164;11.572;2023-03-01T05:36:38;11.13;;;4.70;;
16600;SDS011;34891;48.164;11.572;2023-03-01T05:41:45;17.33;;;5.50;;
16600;SDS011;34891;48.164;11.572;2023-03-01T05:47:02;19.67;;;6.50;;
16600;SDS011;34891;48.164;11.572;2023-03-01T05:52:17;22.30;;;6.83;;
16600;SDS011;34891;48.164;11.572;2023-03-01T05:57:21;12.83;;;4.97;;
16600;SDS011;34891;48.164;11.572;2023-03-01T06:02:40;12.50;;;5.20;;
16600;SDS011;34891;48.164;11.572;2023-03-01T06:07:45;16.43;;;6.50;;
16600;SDS011;34891;48.164;11.572;2023-03-01T06:12:51;16.53;;;6.17;;
16600;SDS011;34891;48.164;11.572;2023-03-01T06:18:09;21.33;;;7.47;;
16600;SDS011;34891;48.164;11.572;2023-03-01T06:23:15;19.55;;;6.78;;
16600;SDS011;34891;48.164;11.572;2023-03-01T06:28:33;15.43;;;5.57;;
16600;SDS011;34891;48.164;11.572;2023-03-01T06:33:45;14.73;;;5.63;;
16600;SDS011;34891;48.164;11.572;2023-03-01T06:38:58;11.87;;;4.60;;
16600;SDS011;34891;48.164;11.572;2023-03-01T06:44:05;14.77;;;4.33;;
16600;SDS011;34891;48.164;11.572;2023-03-01T06:49:18;6.43;;;3.43;;
16600;SDS011;34891;48.164;11.572;2023-03-01T06:54:29;14.80;;;7.17;;
16600;SDS011;34891;48.164;11.572;2023-03-01T06:59:43;12.63;;;4.88;;
16600;SDS011;34891;48.164;11.572;2023-03-01T07:04:55;16.83;;;5.47;;
16600;SDS011;34891;48.164;11.572;2023-03-01T07:10:00;10.57;;;4.13;;
16600;SDS011;34891;48.164;11.572;2023-03-01T07:15:17;17.77;;;6.07;;
16600;SDS011;34891;48.164;11.572;2023-03-01T07:20:27;9.53;;;4.87;;
16600;SDS011;34891;48.164;11.572;2023-03-01T07:25:39;19.63;;;7.65;;
16600;SDS011;34891;48.164;11.572;2023-03-01T07:30:44;7.80;;;3.53;;
16600;SDS011;34891;48.164;11.572;2023-03-01T07:35:58;16.83;;;6.47;;
16600;SDS011;34891;48.164;11.572;2023-03-01T07:41:09;19.20;;;6.57;;
16600;SDS011;34891;48.164;11.572;2023-03-01T07:46:16;16.60;;;7.10;;
16600;SDS011;34891;48.164;11.572;2023-03-01T07:51:33;12.33;;;5.63;;
16600;SDS011;34891;48.164;11.572;2023-03-01T07:56:36;12.97;;;4.63;;
16600;SDS011;34891;48.164;11.572;2023-03-01T08:01:42;9.80;;;4.50;;
16600;SDS011;34891;48.164;11.572;2023-03-01T08:06:55;4.87;;;3.13;;
16600;SDS011;34891;48.164;11.572;2023-03-01T08:12:00;14.57;;;5.53;;
16600;SDS011;34891;48.164;11.572;2023-03-01T08:17:05;6.10;;;2.83;;
16600;SDS011;34891;48.164;11.572;2023-03-01T08:22:17;10.20;;;4.40;;
16600;SDS011;34891;48.164;11.572;2023-03-01T08:27:24;13.17;;;5.40;;
16600;SDS011;34891;48.164;11.572;2023-03-01T08:32:35;11.97;;;4.80;;
16600;SDS011;34891;48.164;11.572;2023-03-01T08:37:54;19.77;;;8.60;;
16600;SDS011;34891;48.164;11.572;2023-03-01T08:43:00;17.40;;;7.43;;
16600;SDS011;34891;48.164;11.572;2023-03-01T08:48:09;18.23;;;6.60;;
16600;SDS011;34891;48.164;11.572;2023-03-01T08:53:17;9.37;;;4.17;;
16600;SDS011;34891;48.164;11.572;2023-03-01T08:58:24;18.08;;;6.95;;
16600;SDS011;34891;48.164;11.572;2023-03-01T09:03:33;16.77;;;5.60;;
16600;SDS011;34891;48.164;11.572;2023-03-01T09:08:48;15.05;;;5.95;;
16600;SDS011;34891;48.164;11.572;2023-03-01T09:18:58;21.60;;;8.02;;
16600;SDS011;34891;48.164;11.572;2023-03-01T09:24:03;16.70;;;4.85;;
16600;SDS011;34891;48.164;11.572;2023-03-01T09:29:09;13.13;;;5.45;;
16600;SDS011;34891;48.164;11.572;2023-03-01T09:34:24;20.40;;;7.30;;
16600;SDS011;34891;48.164;11.572;2023-03-01T09:39:34;19.33;;;8.75;;
16600;SDS011;34891;48.164;11.572;2023-03-01T09:44:45;25.05;;;9.50;;
16600;SDS011;34891;48.164;11.572;2023-03-01T09:50:03;18.35;;;7.47;;
16600;SDS011;34891;48.164;11.572;2023-03-01T09:55:13;14.10;;;5.65;;
16600;SDS011;34891;48.164;11.572;2023-03-01T10:00:21;17.35;;;5.53;;
16600;SDS011;34891;48.164;11.572;2023-03-01T10:05:31;17.15;;;4.90;;
16600;SDS011;34891;48.164;11.572;2023-03-01T10:10:50;13.07;;;4.88;;
16600;SDS011;34891;48.164;11.572;2023-03-01T10:15:55;21.42;;;7.60;;
16600;SDS011;34891;48.164;11.572;2023-03-01T10:21:00;24.08;;;9.60;;
16600;SDS011;34891;48.164;11.572;2023-03-01T10:26:29;23.33;;;9.32;;
16600;SDS011;34891;48.164;11.572;2023-03-01T10:31:46;22.15;;;9.48;;
16600;SDS011;34891;48.164;11.572;2023-03-01T10:36:57;17.52;;;9.27;;
16600;SDS011;34891;48.164;11.572;2023-03-01T10:42:05;20.35;;;8.93;;
16600;SDS011;34891;48.164;11.572;2023-03-01T10:47:27;21.17;;;10.45;;
16600;SDS011;34891;48.164;11.572;2023-03-01T10:52:40;23.80;;;12.00;;
16600;SDS011;34891;48.164;11.572;2023-03-01T11:03:23;21.92;;;12.60;;
16600;SDS011;34891;48.164;11.572;2023-03-01T11:08:34;22.52;;;13.75;;
16600;SDS011;34891;48.164;11.572;2023-03-01T11:19:17;27.42;;;14.80;;
16600;SDS011;34891;48.164;11.572;2023-03-01T11:24:25;23.75;;;13.77;;
16600;SDS011;34891;48.164;11.572;2023-03-01T11:29:40;27.70;;;15.90;;
16600;SDS011;34891;48.164;11.572;2023-03-01T11:35:07;24.13;;;15.05;;
16600;SDS011;34891;48.164;11.572;2023-03-01T11:40:27;27.30;;;16.25;;
16600;SDS011;34891;48.164;11.572;2023-03-01T11:45:47;32.67;;;18.48;;
16600;SDS011;34891;48.164;11.572;2023-03-01T11:56:13;21.65;;;13.52;;
16600;SDS011;34891;48.164;11.572;2023-03-01T12:01:26;24.30;;;13.98;;
16600;SDS011;34891;48.164;11.572;2023-03-01T12:06:50;25.92;;;15.23;;
16600;SDS011;34891;48.164;11.572;2023-03-01T12:12:09;36.05;;;15.07;;
16600;SDS011;34891;48.164;11.572;2023-03-01T12:17:24;30.58;;;15.70;;
16600;SDS011;34891;48.164;11.572;2023-03-01T12:22:44;24.63;;;14.35;;
16600;SDS011;34891;48.164;11.572;2023-03-01T12:33:29;26.77;;;15.15;;
16600;SDS011;34891;48.164;11.572;2023-03-01T12:38:45;23.23;;;12.43;;
16600;SDS011;34891;48.164;11.572;2023-03-01T12:44:03;24.20;;;14.00;;
16600;SDS011;34891;48.164;11.572;2023-03-01T12:49:24;26.88;;;14.05;;
16600;SDS011;34891;48.164;11.572;2023-03-01T12:54:32;21.05;;;11.73;;
16600;SDS011;34891;48.164;11.572;2023-03-01T13:00:00;23.75;;;13.27;;
16600;SDS011;34891;48.164;11.572;2023-03-01T13:10:40;24.73;;;13.48;;
16600;SDS011;34891;48.164;11.572;2023-03-01T13:21:38;24.75;;;13.48;;
16600;SDS011;34891;48.164;11.572;2023-03-01T13:27:20;21.67;;;12.45;;
16600;SDS011;34891;48.164;11.572;2023-03-01T13:32:29;21.55;;;12.88;;
16600;SDS011;34891;48.164;11.572;2023-03-01T13:37:51;26.73;;;13.73;;
16600;SDS011;34891;48.164;11.572;2023-03-01T13:43:01;24.25;;;12.63;;
16600;SDS011;34891;48.164;11.572;2023-03-01T13:48:27;24.67;;;12.73;;
16600;SDS011;34891;48.164;11.572;2023-03-01T13:53:33;25.13;;;12.10;;
16600;SDS011;34891;48.164;11.572;2023-03-01T13:58:46;22.83;;;11.90;;
16600;SDS011;34891;48.164;11.572;2023-03-01T14:03:50;19.83;;;9.15;;
16600;SDS011;34891;48.164;11.572;2023-03-01T14:09:01;26.73;;;12.40;;
16600;SDS011;34891;48.164;11.572;2023-03-01T14:19:35;24.25;;;11.35;;
16600;SDS011;34891;48.164;11.572;2023-03-01T14:24:44;24.17;;;10.98;;
16600;SDS011;34891;48.164;11.572;2023-03-01T14:30:03;20.95;;;9.07;;
16600;SDS011;34891;48.164;11.572;2023-03-01T14:35:21;28.45;;;9.98;;
16600;SDS011;34891;48.164;11.572;2023-03-01T14:40:26;27.42;;;12.10;;
16600;SDS011;34891;48.164;11.572;2023-03-01T14:45:30;26.23;;;12.32;;
16600;SDS011;34891;48.164;11.572;2023-03-01T14:50:42;22.35;;;10.80;;
16600;SDS011;34891;48.164;11.572;2023-03-01T14:55:47;22.50;;;10.52;;
16600;SDS011;34891;48.164;11.572;2023-03-01T15:01:03;19.77;;;9.10;;
16600;SDS011;34891;48.164;11.572;2023-03-01T15:06:33;22.65;;;10.70;;
16600;SDS011;34891;48.164;11.572;2023-03-01T15:11:41;22.52;;;9.27;;
16600;SDS011;34891;48.164;11.572;2023-03-01T15:16:49;24.50;;;10.48;;
16600;SDS011;34891;48.164;11.572;2023-03-01T15:22:02;22.27;;;9.15;;
16600;SDS011;34891;48.164;11.572;2023-03-01T15:27:15;20.55;;;9.20;;
16600;SDS011;34891;48.164;11.572;2023-03-01T15:32:27;20.45;;;9.20;;
16600;SDS011;34891;48.164;11.572;2023-03-01T15:37:48;23.13;;;9.45;;
16600;SDS011;34891;48.164;11.572;2023-03-01T15:42:54;17.38;;;7.78;;
16600;SDS011;34891;48.164;11.572;2023-03-01T15:48:02;23.13;;;8.68;;
16600;SDS011;34891;48.164;11.572;2023-03-01T15:53:23;23.13;;;8.60;;
16600;SDS011;34891;48.164;11.572;2023-03-01T15:58:29;21.42;;;8.52;;
16600;SDS011;34891;48.164;11.572;2023-03-01T16:03:35;20.00;;;8.02;;
16600;SDS011;34891;48.164;11.572;2023-03-01T16:08:42;25.02;;;7.75;;
16600;SDS011;34891;48.164;11.572;2023-03-01T16:13:58;22.92;;;8.35;;
16600;SDS011;34891;48.164;11.572;2023-03-01T16:19:02;21.15;;;6.97;;
16600;SDS011;34891;48.164;11.572;2023-03-01T16:24:14;21.70;;;8.15;;
16600;SDS011;34891;48.164;11.572;2023-03-01T16:29:21;20.30;;;7.93;;
16600;SDS011;34891;48.164;11.572;2023-03-01T16:34:50;20.88;;;7.93;;
16600;SDS011;34891;48.164;11.572;2023-03-01T16:40:16;23.10;;;8.85;;
16600;SDS011;34891;48.164;11.572;2023-03-01T16:45:32;22.38;;;9.07;;
16600;SDS011;34891;48.164;11.572;2023-03-01T16:50:39;24.90;;;8.30;;
16600;SDS011;34891;48.164;11.572;2023-03-01T16:55:53;18.52;;;7.85;;
16600;SDS011;34891;48.164;11.572;2023-03-01T17:01:06;19.80;;;7.87;;
16600;SDS011;34891;48.164;11.572;2023-03-01T17:06:28;19.63;;;8.50;;
16600;SDS011;34891;48.164;11.572;2023-03-01T17:11:42;21.27;;;7.90;;
16600;SDS011;34891;48.164;11.572;2023-03-01T17:16:47;19.85;;;6.70;;
16600;SDS011;34891;48.164;11.572;2023-03-01T17:21:55;19.52;;;7.68;;
16600;SDS011;34891;48.164;11.572;2023-03-01T17:27:00;23.02;;;8.32;;
16600;SDS011;34891;48.164;11.572;2023-03-01T17:32:14;25.55;;;8.15;;
16600;SDS011;34891;48.164;11.572;2023-03-01T17:37:18;34.50;;;9.85;;
16600;SDS011;34891;48.164;11.572;2023-03-01T17:42:29;59.35;;;14.65;;
16600;SDS011;34891;48.164;11.572;2023-03-01T17:47:39;40.80;;;10.02;;
16600;SDS011;34891;48.164;11.572;2023-03-01T17:52:42;20.02;;;7.15;;
16600;SDS011;34891;48.164;11.572;2023-03-01T17:57:50;69.00;;;19.70;;
16600;SDS011;34891;48.164;11.572;2023-03-01T18:02:53;25.08;;;9.40;;
16600;SDS011;34891;48.164;11.572;2023-03-01T18:07:57;43.28;;;14.80;;
16600;SDS011;34891;48.164;11.572;2023-03-01T18:13:08;23.55;;;7.25;;
16600;SDS011;34891;48.164;11.572;2023-03-01T18:18:11;41.85;;;13.90;;
16600;SDS011;34891;48.164;11.572;2023-03-01T18:23:20;31.55;;;10.52;;
16600;SDS011;34891;48.164;11.572;2023-03-01T18:28:32;29.65;;;9.90;;
16600;SDS011;34891;48.164;11.572;2023-03-01T18:33:47;34.15;;;12.63;;
16600;SDS011;34891;48.164;11.572;2023-03-01T18:38:55;37.88;;;13.18;;
16600;SDS011;34891;48.164;11.572;2023-03-01T18:44:19;32.67;;;11.32;;
16600;SDS011;34891;48.164;11.572;2023-03-01T18:49:40;42.05;;;15.45;;
16600;SDS011;34891;48.164;11.572;2023-03-01T18:54:50;43.67;;;14.65;;
16600;SDS011;34891;48.164;11.572;2023-03-01T19:00:09;32.75;;;11.93;;
16600;SDS011;34891;48.164;11.572;2023-03-01T19:05:24;36.75;;;13.13;;
16600;SDS011;34891;48.164;11.572;2023-03-01T19:10:29;35.10;;;12.20;;
16600;SDS011;34891;48.164;11.572;2023-03-01T19:15:40;26.33;;;9.23;;
16600;SDS011;34891;48.164;11.572;2023-03-01T19:21:01;31.90;;;11.35;;
16600;SDS011;34891;48.164;11.572;2023-03-01T19:26:06;24.43;;;8.83;;
16600;SDS011;34891;48.164;11.572;2023-03-01T19:31:22;20.03;;;7.50;;
16600;SDS011;34891;48.164;11.572;2023-03-01T19:36:47;25.42;;;7.65;;
16600;SDS011;34891;48.164;11.572;2023-03-01T19:42:11;20.90;;;6.87;;
16600;SDS011;34891;48.164;11.572;2023-03-01T19:47:22;25.45;;;7.95;;
16600;SDS011;34891;48.164;11.572;2023-03-01T19:52:25;20.67;;;7.23;;
16600;SDS011;34891;48.164;11.572;2023-03-01T19:57:29;22.63;;;7.53;;
16600;SDS011;34891;48.164;11.572;2023-03-01T20:08:07;22.37;;;7.30;;
16600;SDS011;34891;48.164;11.572;2023-03-01T20:13:09;20.70;;;6.47;;
16600;SDS011;34891;48.164;11.572;2023-03-01T20:18:12;17.05;;;5.70;;
16600;SDS011;34891;48.164;11.572;2023-03-01T20:23:17;13.67;;;5.57;;
16600;SDS011;34891;48.164;11.572;2023-03-01T20:28:20;10.38;;;4.55;;
16600;SDS011;34891;48.164;11.572;2023-03-01T20:33:23;13.37;;;5.60;;
16600;SDS011;34891;48.164;11.572;2023-03-01T20:38:27;17.50;;;7.17;;
16600;SDS011;34891;48.164;11.572;2023-03-01T20:43:32;13.80;;;4.47;;
16600;SDS011;34891;48.164;11.572;2023-03-01T20:48:45;20.60;;;6.10;;
16600;SDS011;34891;48.164;11.572;2023-03-01T20:53:49;26.40;;;9.00;;
16600;SDS011;34891;48.164;11.572;2023-03-01T20:58:56;19.10;;;7.30;;
16600;SDS011;34891;48.164;11.572;2023-03-01T21:04:01;19.95;;;6.55;;
16600;SDS011;34891;48.164;11.572;2023-03-01T21:09:07;26.20;;;8.73;;
16600;SDS011;34891;48.164;11.572;2023-03-01T21:14:11;25.20;;;8.23;;
16600;SDS011;34891;48.164;11.572;2023-03-01T21:19:13;19.30;;;6.53;;
16600;SDS011;34891;48.164;11.572;2023-03-01T21:24:18;26.17;;;8.10;;
16600;SDS011;34891;48.164;11.572;2023-03-01T21:34:24;23.17;;;8.03;;
16600;SDS011;34891;48.164;11.572;2023-03-01T21:39:28;16.93;;;6.17;;
16600;SDS011;34891;48.164;11.572;2023-03-01T21:44:35;21.07;;;6.87;;
16600;SDS011;34891;48.164;11.572;2023-03-01T21:49:38;15.27;;;5.87;;
16600;SDS011;34891;48.164;11.572;2023-03-01T21:54:44;19.05;;;7.80;;
16600;SDS011;34891;48.164;11.572;2023-03-01T21:59:46;24.67;;;7.40;;
16600;SDS011;34891;48.164;11.572;2023-03-01T22:04:50;21.97;;;7.10;;
16600;SDS011;34891;48.164;11.572;2023-03-01T22:09:59;25.17;;;8.60;;
16600;SDS011;34891;48.164;11.572;2023-03-01T22:15:03;29.57;;;9.03;;
16600;SDS011;34891;48.164;11.572;2023-03-01T22:20:09;23.33;;;8.70;;
16600;SDS011;34891;48.164;11.572;2023-03-01T22:25:13;17.55;;;6.53;;
16600;SDS011;34891;48.164;11.572;2023-03-01T22:30:26;23.73;;;8.40;;
16600;SDS011;34891;48.164;11.572;2023-03-01T22:35:30;18.75;;;6.38;;
16600;SDS011;34891;48.164;11.572;2023-03-01T22:40:35;25.30;;;7.57;;
16600;SDS011;34891;48.164;11.572;2023-03-01T22:45:39;22.77;;;7.17;;
16600;SDS011;34891;48.164;11.572;2023-03-01T22:50:42;25.00;;;8.30;;
16600;SDS011;34891;48.164;11.572;2023-03-01T22:55:47;21.98;;;6.72;;
16600;SDS011;34891;48.164;11.572;2023-03-01T23:00:50;22.17;;;7.50;;
16600;SDS011;34891;48.164;11.572;2023-03-01T23:05:54;21.90;;;7.93;;
16600;SDS011;34891;48.164;11.572;2023-03-01T23:10:59;19.33;;;6.88;;
16600;SDS011;34891;48.164;11.572;2023-03-01T23:16:03;22.50;;;7.93;;
16600;SDS011;34891;48.164;11.572;2023-03-01T23:21:07;24.73;;;8.18;;
16600;SDS011;34891;48.164;11.572;2023-03-01T23:26:12;23.13;;;7.60;;
16600;SDS011;34891;48.164;11.572;2023-03-01T23:31:16;26.63;;;7.97;;
16600;SDS011;34891;48.164;11.572;2023-03-01T23:36:34;24.63;;;7.90;;
16600;SDS011;34891;48.164;11.572;2023-03-01T23:41:46;27.30;;;8.50;;
16600;SDS011;34891;48.164;11.572;2023-03-01T23:46:50;31.20;;;9.10;;
16600;SDS011;34891;48.164;11.572;2023-03-01T23:51:53;15.23;;;5.37;;
16600;SDS011;34891;48.164;11.572;2023-03-01T23:56:58;26.13;;;7.38;;
